sensor_id;sensor_type;location;lat;lon;timestamp;pressure;altitude;pressure_sealevel;temperature;humidity
71938;BME280;59810;48.800;9.086;2023-01-19T00:01:11;96562.91;;;-2.10;80.23
71938;BME280;59810;48.800;9.086;2023-01-19T00:03:37;96563.91;;;-2.11;80.24
71938;BME280;59810;48.800;9.086;2023-01-19T00:06:05;96561.03;;;-2.16;nan
71938;BME280;59810;48.800;9.086;2023-01-19T00:08:31;96563.50;;;-2.15;80.65
71938;BME280;59810;48.800;9.086;2023-01-19T00:10:56;96564.50;;;-2.16;80.61
71938;BME280;59810;48.800;9.086;2023-01-19T00:13:22;96565.94;;;-2.13;80.66
71938;BME280;59810;48.800;9.086;2023-01-19T00:15:47;96569.38;;;-2.20;80.48
71938;BME280;59810;48.800;9.086;2023-01-19T00:18:12;96570.38;;;-2.21;80.70
71938;BME280;59810;48.800;9.086;2023-01-19T00:20:38;96571.59;;;-2.23;81.56
71938;BME280;59810;48.800;9.086;2023-01-19T00:23:04;96563.47;;;-2.22;81.05
71938;BME280;59810;48.800;9.086;2023-01-19T00:25:31;96571.59;;;-2.23;80.46
71938;BME280;59810;48.800;9.086;2023-01-19T00:27:57;96566.69;;;-2.26;81.26
71938;BME280;59810;48.800;9.086;2023-01-19T00:30:23;96568.53;;;-2.27;81.05
71938;BME280;59810;48.800;9.086;2023-01-19T00:32:48;96570.34;;;-2.27;80.65
71938;BME280;59810;48.800;9.086;2023-01-19T00:35:14;96570.28;;;-2.34;81.07
71938;BME280;59810;48.800;9.086;2023-01-19T00:37:39;96566.25;;;-2.30;81.14
71938;BME280;59810;48.800;9.086;2023-01-19T00:40:05;96575.81;;;-2.29;81.21
71938;BME280;59810;48.800;9.086;2023-01-19T00:42:31;96565.22;;;-2.29;81.53
71938;BME280;59810;48.800;9.086;2023-01-19T00:45:12;96573.16;;;-2.29;80.78
71938;BME280;59810;48.800;9.086;2023-01-19T00:47:38;96570.72;;;-2.30;80.94
71938;BME280;59810;48.800;9.086;2023-01-19T00:50:05;96573.00;;;-2.27;80.60
71938;BME280;59810;48.800;9.086;2023-01-19T00:52:30;96567.50;;;-2.26;80.88
71938;BME280;59810;48.800;9.086;2023-01-19T00:54:56;96568.69;;;-2.28;81.21
71938;BME280;59810;48.800;9.086;2023-01-19T00:57:21;96565.69;;;-2.25;80.79
71938;BME280;59810;48.800;9.086;2023-01-19T00:59:50;96571.81;;;-2.18;80.15
71938;BME280;59810;48.800;9.086;2023-01-19T01:02:15;96569.75;;;-2.23;80.35
71938;BME280;59810;48.800;9.086;2023-01-19T01:04:40;96575.28;;;-2.17;79.49
71938;BME280;59810;48.800;9.086;2023-01-19T01:07:06;96577.31;;;-2.20;80.14
71938;BME280;59810;48.800;9.086;2023-01-19T01:09:33;96573.44;;;-2.17;79.64
71938;BME280;59810;48.800;9.086;2023-01-19T01:11:59;96573.44;;;-2.17;79.83
71938;BME280;59810;48.800;9.086;2023-01-19T01:14:24;96576.72;;;-2.15;79.85
71938;BME280;59810;48.800;9.086;2023-01-19T01:16:49;96578.53;;;-2.15;79.70
71938;BME280;59810;48.800;9.086;2023-01-19T01:19:15;96573.25;;;-2.15;79.58
71938;BME280;59810;48.800;9.086;2023-01-19T01:21:41;96578.34;;;-2.14;79.57
71938;BME280;59810;48.800;9.086;2023-01-19T01:24:07;96579.34;;;-2.15;79.95
71938;BME280;59810;48.800;9.086;2023-01-19T01:26:33;96576.91;;;-2.16;79.29
71938;BME280;59810;48.800;9.086;2023-01-19T01:29:01;96579.94;;;-2.20;79.88
71938;BME280;59810;48.800;9.086;2023-01-19T01:31:26;96575.91;;;-2.15;79.50
71938;BME280;59810;48.800;9.086;2023-01-19T01:33:52;96588.28;;;-2.16;79.04
71938;BME280;59810;48.800;9.086;2023-01-19T01:36:19;96584.22;;;-2.18;79.20
71938;BME280;59810;48.800;9.086;2023-01-19T01:38:46;96590.50;;;-2.20;79.50
71938;BME280;59810;48.800;9.086;2023-01-19T01:41:12;96585.84;;;-2.17;79.51
71938;BME280;59810;48.800;9.086;2023-01-19T01:43:56;96589.09;;;-2.22;79.61
71938;BME280;59810;48.800;9.086;2023-01-19T01:46:24;96589.28;;;-2.24;79.75
71938;BME280;59810;48.800;9.086;2023-01-19T01:49:13;96595.56;;;-2.25;80.05
71938;BME280;59810;48.800;9.086;2023-01-19T01:51:46;96597.97;;;-2.30;79.67
71938;BME280;59810;48.800;9.086;2023-01-19T01:54:26;96596.59;;;-2.26;79.86
71938;BME280;59810;48.800;9.086;2023-01-19T01:56:56;96595.97;;;-2.28;79.79
71938;BME280;59810;48.800;9.086;2023-01-19T01:59:27;96591.44;;;-2.34;80.03
71938;BME280;59810;48.800;9.086;2023-01-19T02:02:01;96588.78;;;-2.34;80.25
71938;BME280;59810;48.800;9.086;2023-01-19T02:04:50;96589.81;;;-2.35;80.02
71938;BME280;59810;48.800;9.086;2023-01-19T02:07:45;96586.53;;;-2.37;80.16
71938;BME280;59810;48.800;9.086;2023-01-19T02:10:32;96591.81;;;-2.37;80.20
71938;BME280;59810;48.800;9.086;2023-01-19T02:13:15;96585.53;;;-2.36;80.29
71938;BME280;59810;48.800;9.086;2023-01-19T02:15:41;96584.72;;;-2.36;80.32
71938;BME280;59810;48.800;9.086;2023-01-19T02:18:08;96584.28;;;-2.40;80.54
71938;BME280;59810;48.800;9.086;2023-01-19T02:20:37;96587.56;;;-2.38;80.59
71938;BME280;59810;48.800;9.086;2023-01-19T02:23:08;96580.63;;;-2.39;80.63
71938;BME280;59810;48.800;9.086;2023-01-19T02:25:40;96582.06;;;-2.36;80.34
71938;BME280;59810;48.800;9.086;2023-01-19T02:28:07;96581.44;;;-2.38;80.45
71938;BME280;59810;48.800;9.086;2023-01-19T02:30:36;96572.31;;;-2.36;80.02
71938;BME280;59810;48.800;9.086;2023-01-19T02:33:04;96579.22;;;-2.35;80.22
71938;BME280;59810;48.800;9.086;2023-01-19T02:35:29;96585.31;;;-2.41;80.95
71938;BME280;59810;48.800;9.086;2023-01-19T02:37:56;96582.03;;;-2.43;80.92
71938;BME280;59810;48.800;9.086;2023-01-19T02:40:23;96584.69;;;-2.43;80.86
71938;BME280;59810;48.800;9.086;2023-01-19T02:42:51;96584.69;;;-2.43;80.74
71938;BME280;59810;48.800;9.086;2023-01-19T02:45:21;96591.81;;;-2.37;80.77
71938;BME280;59810;48.800;9.086;2023-01-19T02:47:49;96593.66;;;-2.37;80.46
71938;BME280;59810;48.800;9.086;2023-01-19T02:50:55;96592.84;;;-2.38;80.37
71938;BME280;59810;48.800;9.086;2023-01-19T02:53:41;96596.72;;;-2.34;80.40
71938;BME280;59810;48.800;9.086;2023-01-19T03:01:56;96597.53;;;-2.33;80.24
71938;BME280;59810;48.800;9.086;2023-01-19T03:04:43;96594.28;;;-2.35;80.14
71938;BME280;59810;48.800;9.086;2023-01-19T03:07:13;96596.31;;;-2.37;80.06
71938;BME280;59810;48.800;9.086;2023-01-19T03:09:46;96593.66;;;-2.37;79.75
71938;BME280;59810;48.800;9.086;2023-01-19T03:14:58;96595.28;;;-2.36;80.42
71938;BME280;59810;48.800;9.086;2023-01-19T03:17:25;96594.28;;;-2.35;80.13
71938;BME280;59810;48.800;9.086;2023-01-19T03:19:53;96594.50;;;-2.30;79.42
71938;BME280;59810;48.800;9.086;2023-01-19T03:22:25;96593.06;;;-2.33;79.63
71938;BME280;59810;48.800;9.086;2023-01-19T03:24:54;96598.16;;;-2.31;79.54
71938;BME280;59810;48.800;9.086;2023-01-19T03:27:28;96589.81;;;-2.35;79.72
71938;BME280;59810;48.800;9.086;2023-01-19T03:29:59;96586.97;;;-2.33;79.67
71938;BME280;59810;48.800;9.086;2023-01-19T03:32:32;96583.31;;;-2.32;79.51
71938;BME280;59810;48.800;9.086;2023-01-19T03:35:07;96584.94;;;-2.31;79.49
71938;BME280;59810;48.800;9.086;2023-01-19T03:37:38;96593.69;;;-2.31;79.09
71938;BME280;59810;48.800;9.086;2023-01-19T03:40:06;96593.88;;;-2.32;79.30
71938;BME280;59810;48.800;9.086;2023-01-19T03:42:32;96596.91;;;-2.35;79.22
71938;BME280;59810;48.800;9.086;2023-01-19T03:44:59;96589.81;;;-2.35;79.44
71938;BME280;59810;48.800;9.086;2023-01-19T03:47:26;96603.22;;;-2.36;79.52
71938;BME280;59810;48.800;9.086;2023-01-19T03:49:52;96596.31;;;-2.37;79.37
71938;BME280;59810;48.800;9.086;2023-01-19T03:52:28;96600.38;;;-2.35;79.33
71938;BME280;59810;48.800;9.086;2023-01-19T03:54:58;96596.50;;;-2.39;79.27
71938;BME280;59810;48.800;9.086;2023-01-19T03:57:23;96592.59;;;-2.43;79.59
71938;BME280;59810;48.800;9.086;2023-01-19T03:59:49;96601.78;;;-2.39;79.61
71938;BME280;59810;48.800;9.086;2023-01-19T04:02:14;96597.50;;;-2.40;79.32
71938;BME280;59810;48.800;9.086;2023-01-19T04:04:40;96597.72;;;-2.35;78.79
71938;BME280;59810;48.800;9.086;2023-01-19T04:07:05;96605.84;;;-2.36;78.89
71938;BME280;59810;48.800;9.086;2023-01-19T04:09:31;96605.66;;;-2.35;78.89
71938;BME280;59810;48.800;9.086;2023-01-19T04:11:56;96606.44;;;-2.41;79.65
71938;BME280;59810;48.800;9.086;2023-01-19T04:14:22;96608.06;;;-2.40;78.97
71938;BME280;59810;48.800;9.086;2023-01-19T04:16:47;96610.09;;;-2.42;79.17
71938;BME280;59810;48.800;9.086;2023-01-19T04:19:15;96610.28;;;-2.43;79.20
71938;BME280;59810;48.800;9.086;2023-01-19T04:21:40;96620.66;;;-2.42;78.80
71938;BME280;59810;48.800;9.086;2023-01-19T04:24:06;96623.31;;;-2.42;79.04
71938;BME280;59810;48.800;9.086;2023-01-19T04:26:31;96620.25;;;-2.45;79.25
71938;BME280;59810;48.800;9.086;2023-01-19T04:28:57;96624.94;;;-2.41;78.79
71938;BME280;59810;48.800;9.086;2023-01-19T04:31:22;96621.88;;;-2.44;79.26
71938;BME280;59810;48.800;9.086;2023-01-19T04:33:50;96619.81;;;-2.49;79.34
71938;BME280;59810;48.800;9.086;2023-01-19T04:36:15;96621.06;;;-2.45;79.17
71938;BME280;59810;48.800;9.086;2023-01-19T04:38:40;96622.69;;;-2.44;78.99
71938;BME280;59810;48.800;9.086;2023-01-19T04:41:06;96621.06;;;-2.45;79.12
71938;BME280;59810;48.800;9.086;2023-01-19T04:43:31;96621.69;;;-2.43;78.97
71938;BME280;59810;48.800;9.086;2023-01-19T04:45:57;96621.69;;;-2.43;79.34
71938;BME280;59810;48.800;9.086;2023-01-19T04:48:22;96624.91;;;-2.47;79.01
71938;BME280;59810;48.800;9.086;2023-01-19T04:50:49;96626.97;;;-2.43;79.40
71938;BME280;59810;48.800;9.086;2023-01-19T04:53:17;96627.59;;;-2.41;78.75
71938;BME280;59810;48.800;9.086;2023-01-19T04:55:43;96634.13;;;-2.37;78.86
71938;BME280;59810;48.800;9.086;2023-01-19T04:58:08;96632.09;;;-2.35;78.73
71938;BME280;59810;48.800;9.086;2023-01-19T05:00:34;96630.88;;;-2.32;78.86
71938;BME280;59810;48.800;9.086;2023-01-19T05:03:00;96628.50;;;-2.27;79.33
71938;BME280;59810;48.800;9.086;2023-01-19T05:05:26;96624.06;;;-2.20;78.49
71938;BME280;59810;48.800;9.086;2023-01-19T05:07:51;96626.50;;;-2.18;78.28
71938;BME280;59810;48.800;9.086;2023-01-19T05:10:17;96636.28;;;-2.19;78.84
71938;BME280;59810;48.800;9.086;2023-01-19T05:12:44;96626.50;;;-2.18;78.74
71938;BME280;59810;48.800;9.086;2023-01-19T05:15:10;96634.69;;;-2.13;78.46
71938;BME280;59810;48.800;9.086;2023-01-19T05:17:35;96637.31;;;-2.13;78.48
71938;BME280;59810;48.800;9.086;2023-01-19T05:20:04;96638.72;;;-2.17;78.49
71938;BME280;59810;48.800;9.086;2023-01-19T05:22:29;96643.19;;;-2.18;78.47
71938;BME280;59810;48.800;9.086;2023-01-19T05:24:57;96634.44;;;-2.18;78.83
71938;BME280;59810;48.800;9.086;2023-01-19T05:27:25;96634.44;;;-2.18;78.29
71938;BME280;59810;48.800;9.086;2023-01-19T05:29:53;96637.28;;;-2.20;78.57
71938;BME280;59810;48.800;9.086;2023-01-19T05:32:20;96643.19;;;-2.18;78.18
71938;BME280;59810;48.800;9.086;2023-01-19T05:34:46;96647.25;;;-2.22;78.56
71938;BME280;59810;48.800;9.086;2023-01-19T05:37:11;96641.06;;;-2.29;79.04
71938;BME280;59810;48.800;9.086;2023-01-19T05:39:36;96644.91;;;-2.32;79.09
71938;BME280;59810;48.800;9.086;2023-01-19T05:42:02;96648.38;;;-2.31;78.87
71938;BME280;59810;48.800;9.086;2023-01-19T05:44:27;96648.19;;;-2.30;79.27
71938;BME280;59810;48.800;9.086;2023-01-19T05:46:53;96661.38;;;-2.36;79.16
71938;BME280;59810;48.800;9.086;2023-01-19T05:49:18;96657.72;;;-2.35;79.16
71938;BME280;59810;48.800;9.086;2023-01-19T05:51:44;96663.00;;;-2.35;79.62
71938;BME280;59810;48.800;9.086;2023-01-19T05:54:12;96664.81;;;-2.36;79.02
71938;BME280;59810;48.800;9.086;2023-01-19T05:56:39;96676.78;;;-2.40;79.67
71938;BME280;59810;48.800;9.086;2023-01-19T05:59:04;96665.41;;;-2.40;79.27
71938;BME280;59810;48.800;9.086;2023-01-19T06:01:30;96677.19;;;-2.43;79.36
71938;BME280;59810;48.800;9.086;2023-01-19T06:03:55;96668.63;;;-2.45;79.42
71938;BME280;59810;48.800;9.086;2023-01-19T06:06:21;96673.91;;;-2.45;79.39
71938;BME280;59810;48.800;9.086;2023-01-19T06:08:46;96675.94;;;-2.47;79.64
71938;BME280;59810;48.800;9.086;2023-01-19T06:11:12;96674.28;;;-2.48;79.63
71938;BME280;59810;48.800;9.086;2023-01-19T06:13:37;96681.22;;;-2.47;79.69
71938;BME280;59810;48.800;9.086;2023-01-19T06:16:06;96684.03;;;-2.48;79.39
71938;BME280;59810;48.800;9.086;2023-01-19T06:18:34;96686.03;;;-2.57;79.73
71938;BME280;59810;48.800;9.086;2023-01-19T06:21:09;96686.84;;;-2.57;79.45
71938;BME280;59810;48.800;9.086;2023-01-19T06:23:36;96697.41;;;-2.57;79.79
71938;BME280;59810;48.800;9.086;2023-01-19T06:26:02;96682.09;;;-2.61;79.58
71938;BME280;59810;48.800;9.086;2023-01-19T06:28:27;96691.03;;;-2.62;79.88
71938;BME280;59810;48.800;9.086;2023-01-19T06:30:55;96686.56;;;-2.62;79.79
71938;BME280;59810;48.800;9.086;2023-01-19T06:33:24;96695.69;;;-2.64;79.96
71938;BME280;59810;48.800;9.086;2023-01-19T06:35:50;96698.97;;;-2.62;79.59
71938;BME280;59810;48.800;9.086;2023-01-19T06:38:16;96699.97;;;-2.63;79.19
71938;BME280;59810;48.800;9.086;2023-01-19T06:40:43;96700.53;;;-2.68;79.60
71938;BME280;59810;48.800;9.086;2023-01-19T06:43:09;96704.63;;;-2.65;79.22
71938;BME280;59810;48.800;9.086;2023-01-19T06:45:35;96703.00;;;-2.66;79.58
71938;BME280;59810;48.800;9.086;2023-01-19T06:48:06;96700.72;;;-2.69;79.94
71938;BME280;59810;48.800;9.086;2023-01-19T06:50:32;96701.72;;;-2.70;80.16
71938;BME280;59810;48.800;9.086;2023-01-19T06:52:57;96700.09;;;-2.71;79.95
71938;BME280;59810;48.800;9.086;2023-01-19T06:55:25;96694.00;;;-2.72;79.82
71938;BME280;59810;48.800;9.086;2023-01-19T06:57:59;96698.47;;;-2.72;80.02
71938;BME280;59810;48.800;9.086;2023-01-19T07:00:25;96706.16;;;-2.77;80.03
71938;BME280;59810;48.800;9.086;2023-01-19T07:02:51;96709.03;;;-2.72;79.84
71938;BME280;59810;48.800;9.086;2023-01-19T07:05:16;96716.19;;;-2.66;79.46
71938;BME280;59810;48.800;9.086;2023-01-19T07:07:44;96713.63;;;-2.60;78.89
71938;BME280;59810;48.800;9.086;2023-01-19T07:10:16;96712.44;;;-2.57;79.04
71938;BME280;59810;48.800;9.086;2023-01-19T07:12:44;96709.59;;;-2.56;78.51
71938;BME280;59810;48.800;9.086;2023-01-19T07:15:11;96703.13;;;-2.53;78.82
71938;BME280;59810;48.800;9.086;2023-01-19T07:17:37;96702.34;;;-2.47;78.18
71938;BME280;59810;48.800;9.086;2023-01-19T07:20:02;96696.44;;;-2.49;78.39
71938;BME280;59810;48.800;9.086;2023-01-19T07:22:30;96696.28;;;-2.41;77.91
71938;BME280;59810;48.800;9.086;2023-01-19T07:24:58;96704.22;;;-2.41;77.79
71938;BME280;59810;48.800;9.086;2023-01-19T07:27:24;96706.00;;;-2.48;78.82
71938;BME280;59810;48.800;9.086;2023-01-19T07:29:54;96703.97;;;-2.46;78.59
71938;BME280;59810;48.800;9.086;2023-01-19T07:32:20;96697.94;;;-2.40;77.96
71938;BME280;59810;48.800;9.086;2023-01-19T07:34:45;96702.84;;;-2.37;77.87
71938;BME280;59810;48.800;9.086;2023-01-19T07:37:10;96701.59;;;-2.41;78.13
71938;BME280;59810;48.800;9.086;2023-01-19T07:39:36;96700.97;;;-2.43;78.05
71938;BME280;59810;48.800;9.086;2023-01-19T07:42:01;96703.78;;;-2.44;78.02
71938;BME280;59810;48.800;9.086;2023-01-19T07:44:26;96708.31;;;-2.38;78.07
71938;BME280;59810;48.800;9.086;2023-01-19T07:46:52;96709.56;;;-2.34;77.98
71938;BME280;59810;48.800;9.086;2023-01-19T07:49:17;96707.53;;;-2.32;77.46
71938;BME280;59810;48.800;9.086;2023-01-19T07:51:42;96711.69;;;-2.23;77.15
71938;BME280;59810;48.800;9.086;2023-01-19T07:54:08;96714.91;;;-2.28;77.53
71938;BME280;59810;48.800;9.086;2023-01-19T07:56:33;96725.72;;;-2.23;76.84
71938;BME280;59810;48.800;9.086;2023-01-19T07:58:58;96725.97;;;-2.17;76.57
71938;BME280;59810;48.800;9.086;2023-01-19T08:01:24;96725.59;;;-2.14;76.51
71938;BME280;59810;48.800;9.086;2023-01-19T08:03:51;96728.06;;;-2.06;75.78
71938;BME280;59810;48.800;9.086;2023-01-19T08:06:21;96729.13;;;-2.01;75.93
71938;BME280;59810;48.800;9.086;2023-01-19T08:08:48;96734.03;;;-1.98;75.63
71938;BME280;59810;48.800;9.086;2023-01-19T08:11:13;96735.50;;;-1.95;75.14
71938;BME280;59810;48.800;9.086;2023-01-19T08:13:39;96731.19;;;-1.96;75.77
71938;BME280;59810;48.800;9.086;2023-01-19T08:16:05;96725.16;;;-1.90;75.21
71938;BME280;59810;48.800;9.086;2023-01-19T08:18:30;96740.41;;;-1.92;75.81
71938;BME280;59810;48.800;9.086;2023-01-19T08:20:57;96741.00;;;-1.90;75.17
71938;BME280;59810;48.800;9.086;2023-01-19T08:23:23;96742.88;;;-1.84;74.60
71938;BME280;59810;48.800;9.086;2023-01-19T08:25:49;96739.41;;;-1.84;75.10
71938;BME280;59810;48.800;9.086;2023-01-19T08:28:15;96746.94;;;-1.88;75.16
71938;BME280;59810;48.800;9.086;2023-01-19T08:30:42;96755.06;;;-1.90;75.51
71938;BME280;59810;48.800;9.086;2023-01-19T08:33:17;96754.47;;;-1.85;75.88
71938;BME280;59810;48.800;9.086;2023-01-19T08:35:47;96755.09;;;-1.83;76.04
71938;BME280;59810;48.800;9.086;2023-01-19T08:38:13;96756.53;;;-1.80;75.41
71938;BME280;59810;48.800;9.086;2023-01-19T08:40:41;96763.88;;;-1.76;75.16
71938;BME280;59810;48.800;9.086;2023-01-19T08:43:09;96765.53;;;-1.75;75.44
71938;BME280;59810;48.800;9.086;2023-01-19T08:45:40;96757.97;;;-1.78;75.48
71938;BME280;59810;48.800;9.086;2023-01-19T08:48:11;96762.88;;;-1.75;75.16
71938;BME280;59810;48.800;9.086;2023-01-19T08:50:37;96767.97;;;-1.73;75.57
71938;BME280;59810;48.800;9.086;2023-01-19T08:53:03;96768.06;;;-1.60;77.29
71938;BME280;59810;48.800;9.086;2023-01-19T08:55:32;96765.63;;;-1.62;75.93
71938;BME280;59810;48.800;9.086;2023-01-19T08:57:58;96759.69;;;-1.64;75.31
71938;BME280;59810;48.800;9.086;2023-01-19T09:00:28;96765.22;;;-1.59;75.35
71938;BME280;59810;48.800;9.086;2023-01-19T09:02:56;96765.47;;;-0.99;89.39
71938;BME280;59810;48.800;9.086;2023-01-19T09:05:21;96777.22;;;-1.21;76.56
71938;BME280;59810;48.800;9.086;2023-01-19T09:07:49;96777.28;;;-1.08;75.17
71938;BME280;59810;48.800;9.086;2023-01-19T09:10:16;96777.69;;;-1.05;74.55
71938;BME280;59810;48.800;9.086;2023-01-19T09:12:42;96776.91;;;-0.99;74.29
71938;BME280;59810;48.800;9.086;2023-01-19T09:15:09;96770.22;;;-0.95;74.70
71938;BME280;59810;48.800;9.086;2023-01-19T09:17:38;96784.28;;;-0.87;74.42
71938;BME280;59810;48.800;9.086;2023-01-19T09:20:03;96786.56;;;-0.78;73.35
71938;BME280;59810;48.800;9.086;2023-01-19T09:22:30;96786.78;;;-0.73;73.39
71938;BME280;59810;48.800;9.086;2023-01-19T09:24:56;96777.41;;;-0.69;73.19
71938;BME280;59810;48.800;9.086;2023-01-19T09:27:23;96776.19;;;-0.66;73.42
71938;BME280;59810;48.800;9.086;2023-01-19T09:29:49;96785.59;;;-0.64;73.98
71938;BME280;59810;48.800;9.086;2023-01-19T09:32:19;96781.31;;;-0.58;73.97
71938;BME280;59810;48.800;9.086;2023-01-19T09:34:47;96782.75;;;-0.49;73.04
71938;BME280;59810;48.800;9.086;2023-01-19T09:37:13;96786.44;;;-0.43;73.05
71938;BME280;59810;48.800;9.086;2023-01-19T09:39:40;96785.81;;;-0.45;73.31
71938;BME280;59810;48.800;9.086;2023-01-19T09:44:46;96785.63;;;-0.44;73.84
71938;BME280;59810;48.800;9.086;2023-01-19T09:47:15;96791.53;;;-0.42;73.45
71938;BME280;59810;48.800;9.086;2023-01-19T09:50:23;96783.38;;;-0.34;73.01
71938;BME280;59810;48.800;9.086;2023-01-19T09:53:04;96793.22;;;-0.27;72.82
71938;BME280;59810;48.800;9.086;2023-01-19T09:55:35;96779.53;;;-0.24;72.67
71938;BME280;59810;48.800;9.086;2023-01-19T09:58:02;96784.84;;;-0.24;72.79
71938;BME280;59810;48.800;9.086;2023-01-19T10:00:29;96784.44;;;-0.21;72.83
71938;BME280;59810;48.800;9.086;2023-01-19T10:02:58;96780.56;;;-0.25;73.21
71938;BME280;59810;48.800;9.086;2023-01-19T10:05:58;96786.88;;;-0.20;72.78
71938;BME280;59810;48.800;9.086;2023-01-19T10:10:58;96777.09;;;-0.06;72.34
71938;BME280;59810;48.800;9.086;2023-01-19T10:16:33;96780.34;;;-0.04;71.69
71938;BME280;59810;48.800;9.086;2023-01-19T10:19:19;96772.81;;;-0.07;71.76
71938;BME280;59810;48.800;9.086;2023-01-19T10:21:49;96777.09;;;-0.06;71.87
71938;BME280;59810;48.800;9.086;2023-01-19T10:24:20;96785.25;;;-0.01;71.49
71938;BME280;59810;48.800;9.086;2023-01-19T10:26:55;96780.78;;;0.06;71.89
71938;BME280;59810;48.800;9.086;2023-01-19T10:29:28;96781.56;;;0.20;71.21
71938;BME280;59810;48.800;9.086;2023-01-19T10:32:05;96775.84;;;0.29;70.72
71938;BME280;59810;48.800;9.086;2023-01-19T10:34:32;96780.13;;;0.37;70.10
71938;BME280;59810;48.800;9.086;2023-01-19T10:39:56;96779.72;;;0.47;70.59
71938;BME280;59810;48.800;9.086;2023-01-19T10:42:27;96780.72;;;0.46;70.56
71938;BME280;59810;48.800;9.086;2023-01-19T10:44:53;96777.84;;;0.54;70.20
71938;BME280;59810;48.800;9.086;2023-01-19T10:47:20;96778.69;;;0.48;70.67
71938;BME280;59810;48.800;9.086;2023-01-19T10:49:48;96779.47;;;0.55;70.68
71938;BME280;59810;48.800;9.086;2023-01-19T10:52:34;96776.22;;;0.53;70.87
71938;BME280;59810;48.800;9.086;2023-01-19T10:55:02;96777.88;;;0.47;70.77
71938;BME280;59810;48.800;9.086;2023-01-19T10:57:31;96786.25;;;0.31;71.10
71938;BME280;59810;48.800;9.086;2023-01-19T10:59:58;96780.75;;;0.26;71.26
71938;BME280;59810;48.800;9.086;2023-01-19T11:02:28;96786.47;;;0.23;71.23
71938;BME280;59810;48.800;9.086;2023-01-19T11:04:56;96788.28;;;0.29;71.96
71938;BME280;59810;48.800;9.086;2023-01-19T11:12:41;96774.44;;;1.05;68.69
71938;BME280;59810;48.800;9.086;2023-01-19T11:15:31;96776.31;;;0.98;68.37
71938;BME280;59810;48.800;9.086;2023-01-19T11:17:58;96779.00;;;0.84;69.79
71938;BME280;59810;48.800;9.086;2023-01-19T11:20:51;96774.13;;;0.75;69.75
71938;BME280;59810;48.800;9.086;2023-01-19T11:25:57;96764.28;;;0.82;69.42
71938;BME280;59810;48.800;9.086;2023-01-19T11:31:01;96761.19;;;0.98;68.79
71938;BME280;59810;48.800;9.086;2023-01-19T11:36:32;96757.13;;;1.27;68.06
71938;BME280;59810;48.800;9.086;2023-01-19T11:39:12;96757.22;;;1.52;67.76
71938;BME280;59810;48.800;9.086;2023-01-19T11:41:41;96751.94;;;1.77;67.09
71938;BME280;59810;48.800;9.086;2023-01-19T11:46:39;96761.44;;;1.66;67.17
71938;BME280;59810;48.800;9.086;2023-01-19T11:49:26;96764.31;;;1.58;67.13
71938;BME280;59810;48.800;9.086;2023-01-19T11:54:59;96747.84;;;1.43;67.84
71938;BME280;59810;48.800;9.086;2023-01-19T11:57:22;96757.03;;;1.47;67.61
71938;BME280;59810;48.800;9.086;2023-01-19T11:59:47;96746.44;;;1.40;67.38
71938;BME280;59810;48.800;9.086;2023-01-19T12:04:53;96755.72;;;1.31;67.98
71938;BME280;59810;48.800;9.086;2023-01-19T12:07:25;96758.22;;;1.19;68.56
71938;BME280;59810;48.800;9.086;2023-01-19T12:10:05;96747.81;;;1.11;68.75
71938;BME280;59810;48.800;9.086;2023-01-19T12:12:33;96754.41;;;1.02;69.62
71938;BME280;59810;48.800;9.086;2023-01-19T12:15:18;96757.28;;;1.01;69.39
71938;BME280;59810;48.800;9.086;2023-01-19T12:17:49;96751.97;;;0.94;70.04
71938;BME280;59810;48.800;9.086;2023-01-19T12:22:49;96762.03;;;0.85;70.68
71938;BME280;59810;48.800;9.086;2023-01-19T12:25:21;96757.94;;;0.89;70.45
71938;BME280;59810;48.800;9.086;2023-01-19T12:27:51;96756.94;;;0.84;70.98
71938;BME280;59810;48.800;9.086;2023-01-19T12:30:23;96755.69;;;0.86;70.34
71938;BME280;59810;48.800;9.086;2023-01-19T12:32:49;96761.59;;;0.88;70.68
71938;BME280;59810;48.800;9.086;2023-01-19T12:41:26;96758.78;;;0.83;70.85
71938;BME280;59810;48.800;9.086;2023-01-19T12:46:40;96764.91;;;0.84;71.17
71938;BME280;59810;48.800;9.086;2023-01-19T12:51:40;96770.41;;;0.82;71.71
71938;BME280;59810;48.800;9.086;2023-01-19T12:54:07;96774.09;;;0.81;71.35
71938;BME280;59810;48.800;9.086;2023-01-19T12:56:42;96775.34;;;0.79;71.69
71938;BME280;59810;48.800;9.086;2023-01-19T12:59:22;96777.78;;;0.80;71.58
71938;BME280;59810;48.800;9.086;2023-01-19T13:13:31;96787.25;;;0.50;79.29
71938;BME280;59810;48.800;9.086;2023-01-19T13:19:08;96786.69;;;0.35;81.54
71938;BME280;59810;48.800;9.086;2023-01-19T13:21:47;96792.59;;;0.30;82.69
71938;BME280;59810;48.800;9.086;2023-01-19T13:24:19;96792.19;;;0.26;83.45
71938;BME280;59810;48.800;9.086;2023-01-19T13:29:21;96798.72;;;0.30;82.74
71938;BME280;59810;48.800;9.086;2023-01-19T13:31:49;96793.00;;;0.34;82.67
71938;BME280;59810;48.800;9.086;2023-01-19T13:34:22;96793.22;;;0.39;84.56
71938;BME280;59810;48.800;9.086;2023-01-19T13:36:50;96794.63;;;0.28;84.36
71938;BME280;59810;48.800;9.086;2023-01-19T13:39:29;96796.50;;;0.34;84.28
71938;BME280;59810;48.800;9.086;2023-01-19T13:42:01;96793.22;;;0.39;84.03
71938;BME280;59810;48.800;9.086;2023-01-19T13:44:39;96802.41;;;0.36;84.88
71938;BME280;59810;48.800;9.086;2023-01-19T13:47:14;96801.19;;;0.39;83.59
71938;BME280;59810;48.800;9.086;2023-01-19T13:49:46;96803.81;;;0.39;83.44
71938;BME280;59810;48.800;9.086;2023-01-19T13:52:20;96806.47;;;0.39;84.17
71938;BME280;59810;48.800;9.086;2023-01-19T13:54:50;96799.34;;;0.33;84.25
71938;BME280;59810;48.800;9.086;2023-01-19T13:57:32;96802.19;;;0.38;83.49
71938;BME280;59810;48.800;9.086;2023-01-19T14:00:20;96804.84;;;0.38;84.38
71938;BME280;59810;48.800;9.086;2023-01-19T14:05:41;96810.56;;;0.48;83.22
71938;BME280;59810;48.800;9.086;2023-01-19T14:10:33;96810.97;;;0.45;84.70
71938;BME280;59810;48.800;9.086;2023-01-19T14:13:05;96813.81;;;0.50;84.87
71938;BME280;59810;48.800;9.086;2023-01-19T14:15:36;96810.75;;;0.53;83.80
71938;BME280;59810;48.800;9.086;2023-01-19T14:20:40;96808.72;;;0.42;84.82
71938;BME280;59810;48.800;9.086;2023-01-19T14:26:48;96796.44;;;0.54;84.74
71938;BME280;59810;48.800;9.086;2023-01-19T14:31:49;96803.78;;;0.58;83.75
71938;BME280;59810;48.800;9.086;2023-01-19T14:34:38;96805.63;;;0.58;83.94
71938;BME280;59810;48.800;9.086;2023-01-19T14:39:56;96807.06;;;0.54;84.11
71938;BME280;59810;48.800;9.086;2023-01-19T14:42:29;96809.31;;;0.50;85.31